Time;durP1;ratioP1;P1;durP2;ratioP2;P2;SDS_P1;SDS_P2;PMS_P1;PMS_P2;Temp;Humidity;BMP_temperature;BMP_pressure;BME280_temperature;BME280_humidity;BME280_pressure;Samples;Min_cycle;Max_cycle;Signal;HPM_P1;HPM_P2
2023/01/10 00:02:20;;;;;;;4.95;1.95;;;;;;;-1.43;59.91;100882.25;1779815;80;21494;-54
2023/01/10 00:04:49;;;;;;;5.62;1.70;;;;;;;-1.44;60.09;100878.34;1779646;80;21150;-54
2023/01/10 00:07:19;;;;;;;6.90;1.85;;;;;;;-1.42;60.03;100881.77;1779882;80;21145;-55
2023/01/10 00:09:49;;;;;;;9.23;1.90;;;;;;;-1.40;59.98;100894.61;1780051;80;21293;-55
2023/01/10 00:15:06;;;;;;;;;;;;;;;-1.40;59.93;100882.52;1782493;80;21142;-54
2023/01/10 00:17:36;;;;;;;7.70;2.52;;;;;;;-1.40;59.97;100890.58;1779692;80;20496;-54
2023/01/10 00:20:06;;;;;;;7.55;2.15;;;;;;;-1.41;59.72;100888.86;1779535;79;21139;-53
2023/01/10 00:22:34;;;;;;;7.95;2.47;;;;;;;-1.41;59.31;100884.83;1780024;80;21122;-53
2023/01/10 00:25:05;;;;;;;6.67;2.47;;;;;;;-1.41;59.41;100891.55;1779761;80;21158;-53
2023/01/10 00:27:34;;;;;;;10.45;2.52;;;;;;;-1.39;59.52;100889.13;1779718;80;21110;-55
2023/01/10 00:30:13;;;;;;;7.10;2.20;;;;;;;-1.38;59.57;100888.16;1779584;80;21554;-55
2023/01/10 00:32:37;;;;;;;10.00;2.70;;;;;;;-1.38;59.30;100887.30;1779128;80;21511;-54
2023/01/10 00:35:08;;;;;;;11.30;2.20;;;;;;;-1.37;59.46;100889.02;1779940;80;21141;-55
2023/01/10 00:37:38;;;;;;;10.20;2.40;;;;;;;-1.38;58.95;100893.53;1779972;80;21101;-55
2023/01/10 00:40:08;;;;;;;7.55;2.50;;;;;;;-1.38;58.90;100884.61;1779622;79;21095;-55
2023/01/10 00:45:25;;;;;;;7.87;2.25;;;;;;;-1.36;58.41;100872.78;1779998;80;21170;-55
2023/01/10 00:47:54;;;;;;;7.20;1.90;;;;;;;-1.38;57.79;100880.09;1779819;80;21170;-55
2023/01/10 00:50:23;;;;;;;12.35;2.12;;;;;;;-1.38;57.96;100877.89;1779599;80;21542;-54
2023/01/10 00:52:52;;;;;;;8.70;2.05;;;;;;;-1.39;58.32;100878.86;1776789;80;21141;-55
2023/01/10 00:55:20;;;;;;;6.78;1.80;;;;;;;-1.38;58.31;100884.61;1766405;81;21126;-55
2023/01/10 00:57:49;;;;;;;8.10;1.80;;;;;;;-1.38;57.91;100879.23;1766410;80;21103;-54
2023/01/10 01:00:19;;;;;;;8.18;1.90;;;;;;;-1.39;57.76;100882.89;1766433;81;21107;-53
2023/01/10 01:02:50;;;;;;;16.57;3.85;;;;;;;-1.41;57.72;100884.34;1713164;84;21122;-55
2023/01/10 01:05:19;;;;;;;8.08;2.00;;;;;;;-1.39;57.75;100885.58;1712887;84;21162;-55
2023/01/10 01:07:51;;;;;;;12.13;2.22;;;;;;;-1.38;57.69;100879.23;1713425;84;21110;-55
2023/01/10 01:10:26;;;;;;;9.65;1.77;;;;;;;-1.37;57.61;100882.30;1713073;84;21254;-55
2023/01/10 01:12:58;;;;;;;6.65;1.80;;;;;;;-1.36;57.66;100879.98;1713142;84;21745;-53
2023/01/10 01:15:27;;;;;;;11.10;2.05;;;;;;;-1.36;57.81;100878.64;1713168;84;21134;-53
2023/01/10 01:17:57;;;;;;;14.60;2.37;;;;;;;-1.36;57.88;100886.70;1713029;84;21209;-55
2023/01/10 01:20:26;;;;;;;7.05;2.00;;;;;;;-1.38;57.86;100885.95;1727182;81;21138;-54
2023/01/10 01:22:55;;;;;;;10.10;2.05;;;;;;;-1.40;57.88;100877.14;1766466;81;21170;-55
2023/01/10 01:25:23;;;;;;;6.72;2.02;;;;;;;-1.43;57.97;100884.94;1766339;81;21091;-53
2023/01/10 01:27:53;;;;;;;7.97;2.02;;;;;;;-1.45;57.93;100874.78;1766292;80;21170;-53
2023/01/10 01:30:22;;;;;;;14.30;2.30;;;;;;;-1.48;57.74;100877.69;1766634;81;21096;-57
2023/01/10 01:32:52;;;;;;;22.87;2.40;;;;;;;-1.49;57.96;100879.14;1766280;81;21186;-53
2023/01/10 01:35:23;;;;;;;11.88;2.33;;;;;;;-1.49;58.05;100885.86;1766358;81;21202;-54
2023/01/10 01:37:54;;;;;;;8.70;2.52;;;;;;;-1.50;58.31;100880.11;1766089;81;21663;-54
2023/01/10 01:40:23;;;;;;;18.02;2.75;;;;;;;-1.49;58.57;100882.69;1766618;81;21091;-55
2023/01/10 01:42:55;;;;;;;8.18;2.40;;;;;;;-1.51;58.64;100875.22;1766285;81;21526;-54
2023/01/10 01:45:36;;;;;;;11.97;2.60;;;;;;;-1.52;58.59;100869.95;1766426;81;21099;-54
2023/01/10 01:48:20;;;;;;;11.03;2.15;;;;;;;-1.52;58.90;100872.16;1766258;81;21189;-55
2023/01/10 01:50:55;;;;;;;8.38;2.02;;;;;;;-1.52;59.05;100883.39;1766281;81;21083;-55
2023/01/10 01:53:40;;;;;;;12.25;1.80;;;;;;;-1.53;59.15;100876.30;1766461;80;21111;-56
2023/01/10 01:56:17;;;;;;;10.65;2.50;;;;;;;-1.54;59.35;100874.58;1766606;81;21652;-54
2023/01/10 01:58:50;;;;;;;7.15;1.70;;;;;;;-1.53;59.71;100883.88;1766714;80;21166;-54
2023/01/10 02:01:21;;;;;;;8.98;1.65;;;;;;;-1.54;59.80;100893.39;1766430;81;21522;-53
2023/01/10 02:03:54;;;;;;;10.72;2.17;;;;;;;-1.54;60.01;100894.73;1766328;81;21107;-54
2023/01/10 02:06:25;;;;;;;9.78;2.37;;;;;;;-1.53;60.22;100893.77;1766561;81;21433;-55
2023/01/10 02:09:04;;;;;;;7.35;1.92;;;;;;;-1.55;60.41;100897.05;1747959;81;21154;-54
2023/01/10 02:11:34;;;;;;;5.75;1.82;;;;;;;-1.57;60.63;100887.75;1701168;84;21597;-56
2023/01/10 02:14:04;;;;;;;12.55;2.92;;;;;;;-1.60;60.64;100882.11;1713223;84;21162;-55
2023/01/10 02:16:32;;;;;;;11.08;2.17;;;;;;;-1.60;60.73;100886.14;1713024;84;21199;-55
2023/01/10 02:19:01;;;;;;;17.05;2.80;;;;;;;-1.62;61.00;100881.36;1713031;83;21177;-55
2023/01/10 02:21:38;;;;;;;12.93;2.40;;;;;;;-1.60;61.26;100892.00;1713302;84;21146;-55
2023/01/10 02:24:24;;;;;;;10.13;2.37;;;;;;;-1.61;61.48;100878.19;1713146;84;21220;-55
2023/01/10 02:27:01;;;;;;;;;;;;;;;-1.63;61.80;100877.44;1715654;84;21111;-53
2023/01/10 02:29:59;;;;;;;10.35;2.50;;;;;;;-1.65;61.94;100869.48;1712555;84;20187;-53
2023/01/10 02:32:48;;;;;;;12.25;3.08;;;;;;;-1.69;61.93;100866.64;1713234;84;21169;-53
2023/01/10 02:35:55;;;;;;;13.88;2.10;;;;;;;-1.69;62.08;100869.33;1718278;81;21202;-55
2023/01/10 02:38:40;;;;;;;6.00;2.05;;;;;;;-1.66;62.25;100877.17;1766321;81;21597;-56
2023/01/10 02:41:23;;;;;;;14.15;2.22;;;;;;;-1.68;62.26;100885.82;1766511;81;21103;-55
2023/01/10 02:44:16;;;;;;;9.58;2.50;;;;;;;-1.69;62.43;100880.07;1766458;81;21143;-54
2023/01/10 02:46:46;;;;;;;18.02;3.25;;;;;;;-1.71;62.34;100887.38;1766760;80;21139;-55
2023/01/10 02:49:15;;;;;;;7.55;1.98;;;;;;;-1.72;62.43;100899.09;1766618;81;21158;-54
2023/01/10 02:51:43;;;;;;;19.98;2.37;;;;;;;-1.71;62.47;100886.52;1766584;81;21115;-55
2023/01/10 02:54:20;;;;;;;9.25;2.08;;;;;;;-1.71;62.48;100904.84;1766285;80;21550;-55
2023/01/10 02:57:22;;;;;;;20.15;2.85;;;;;;;-1.71;62.59;100913.38;1766569;81;21166;-54
2023/01/10 03:00:14;;;;;;;12.70;2.40;;;;;;;-1.72;62.52;100913.86;1766350;81;21537;-55
2023/01/10 03:03:07;;;;;;;7.22;2.50;;;;;;;-1.72;62.13;100915.20;1766703;81;21071;-54
2023/01/10 03:05:58;;;;;;;9.20;2.30;;;;;;;-1.70;61.95;100911.07;1766367;81;21174;-54
2023/01/10 03:08:45;;;;;;;13.03;2.70;;;;;;;-1.71;61.60;100915.58;1766668;81;21121;-54
2023/01/10 03:11:14;;;;;;;13.85;2.30;;;;;;;-1.71;61.58;100918.27;1763683;81;21186;-54
2023/01/10 03:13:51;;;;;;;7.58;2.22;;;;;;;-1.70;61.72;100910.59;1766421;81;21134;-54
2023/01/10 03:16:26;;;;;;;10.43;2.05;;;;;;;-1.69;61.84;100914.99;1766692;81;21134;-55
2023/01/10 03:19:05;;;;;;;5.12;2.00;;;;;;;-1.70;62.08;100917.30;1767332;80;21155;-55
2023/01/10 03:21:35;;;;;;;11.48;2.67;;;;;;;-1.71;62.17;100933.05;1767974;81;21159;-54
2023/01/10 03:24:18;;;;;;;9.25;2.27;;;;;;;-1.70;62.34;100933.42;1767885;81;21142;-55
2023/01/10 03:27:03;;;;;;;7.97;2.45;;;;;;;-1.68;62.20;100935.52;1767252;81;21111;-54
2023/01/10 03:29:38;;;;;;;13.35;2.47;;;;;;;-1.68;61.91;100942.23;1766425;81;21107;-55
2023/01/10 03:32:07;;;;;;;8.10;2.05;;;;;;;-1.68;61.89;100936.86;1766319;81;21180;-53
2023/01/10 03:34:36;;;;;;;11.35;2.75;;;;;;;-1.69;62.04;100932.45;1766770;81;21099;-55
2023/01/10 03:37:16;;;;;;;12.43;2.52;;;;;;;-1.69;62.29;100945.89;1766573;81;21149;-52
2023/01/10 03:40:00;;;;;;;10.63;2.40;;;;;;;-1.69;62.56;100946.37;1766324;81;21147;-54
2023/01/10 03:45:48;;;;;;;9.10;2.55;;;;;;;-1.67;62.92;100938.58;1766715;80;21091;-53
2023/01/10 03:48:17;;;;;;;12.93;2.20;;;;;;;-1.65;63.01;100931.27;1765934;81;21119;-55
2023/01/10 03:50:46;;;;;;;11.65;2.27;;;;;;;-1.65;63.05;100939.33;1766151;81;21311;-52
2023/01/10 03:53:15;;;;;;;8.48;2.20;;;;;;;-1.64;63.27;100939.70;1766354;80;21391;-55
2023/01/10 03:55:45;;;;;;;10.78;2.60;;;;;;;-1.62;63.23;100942.29;1766332;81;21162;-54
2023/01/10 03:58:16;;;;;;;11.05;2.52;;;;;;;-1.62;63.23;100949.00;1766320;81;21178;-53
2023/01/10 04:00:45;;;;;;;13.15;3.52;;;;;;;-1.61;63.18;100941.33;1766459;81;21127;-53
2023/01/10 04:03:15;;;;;;;9.70;2.72;;;;;;;-1.64;63.28;100948.25;1766393;81;21103;-54
2023/01/10 04:06:03;;;;;;;14.93;3.37;;;;;;;-1.66;63.49;100946.16;1766211;81;21127;-56
2023/01/10 04:08:33;;;;;;;10.93;2.40;;;;;;;-1.70;63.58;100951.36;1766378;81;21578;-54
2023/01/10 04:11:01;;;;;;;7.28;2.98;;;;;;;-1.75;64.09;100949.00;1766449;81;21107;-54
2023/01/10 04:13:30;;;;;;;9.55;2.70;;;;;;;-1.79;64.25;100950.17;1766204;80;21111;-54
2023/01/10 04:16:00;;;;;;;17.65;2.75;;;;;;;-1.85;64.44;100953.28;1766394;81;21103;-53
2023/01/10 04:18:29;;;;;;;8.50;2.37;;;;;;;-1.86;64.70;100958.76;1766419;81;21107;-54
2023/01/10 04:20:58;;;;;;;13.32;2.70;;;;;;;-1.89;64.80;100958.48;1766356;81;21083;-53
2023/01/10 04:23:27;;;;;;;8.98;2.60;;;;;;;-1.93;65.14;100961.86;1766465;81;21111;-55
2023/01/10 04:25:56;;;;;;;11.28;2.83;;;;;;;-1.97;65.19;100959.45;1766429;80;21130;-55
2023/01/10 04:28:24;;;;;;;13.78;3.20;;;;;;;-2.01;65.35;100966.00;1766221;81;21149;-54
2023/01/10 04:30:53;;;;;;;9.45;3.20;;;;;;;-2.03;65.57;100963.41;1766568;80;21523;-53
2023/01/10 04:33:22;;;;;;;7.33;2.70;;;;;;;-2.02;65.63;100965.14;1766305;81;21147;-53
2023/01/10 04:35:51;;;;;;;9.88;2.98;;;;;;;-2.02;65.71;100970.98;1766558;80;21107;-54
2023/01/10 04:38:19;;;;;;;8.58;3.35;;;;;;;-2.03;65.75;100965.23;1766252;81;21075;-54
2023/01/10 04:40:54;;;;;;;8.50;3.70;;;;;;;-2.05;65.78;100967.17;1766434;81;21131;-53
2023/01/10 04:43:23;;;;;;;10.30;2.95;;;;;;;-2.06;65.65;100973.50;1766517;81;21087;-53
2023/01/10 04:45:52;;;;;;;14.73;2.60;;;;;;;-2.07;65.51;100981.17;1766393;81;21095;-54
2023/01/10 04:48:22;;;;;;;11.60;2.98;;;;;;;-2.08;65.68;100983.48;1766244;81;21115;-54
2023/01/10 04:50:52;;;;;;;21.15;3.20;;;;;;;-2.10;65.65;100990.78;1766461;81;21130;-55
2023/01/10 04:53:21;;;;;;;14.78;3.27;;;;;;;-2.12;65.65;100992.22;1766540;80;21103;-54
2023/01/10 04:55:50;;;;;;;9.60;2.95;;;;;;;-2.13;65.65;101004.41;1770625;80;21139;-55
2023/01/10 04:58:19;;;;;;;19.98;3.25;;;;;;;-2.15;65.79;101006.33;1771146;81;21079;-54
2023/01/10 05:00:49;;;;;;;15.00;3.33;;;;;;;-2.18;66.02;101005.19;1771122;81;21110;-55
2023/01/10 05:03:19;;;;;;;12.55;3.17;;;;;;;-2.21;66.13;101013.45;1771209;81;21134;-54
2023/01/10 05:05:49;;;;;;;23.65;3.05;;;;;;;-2.20;66.09;101011.14;1770916;81;21118;-54
2023/01/10 05:08:18;;;;;;;10.25;3.17;;;;;;;-2.25;66.24;101005.59;1771269;81;21067;-54
2023/01/10 05:10:47;;;;;;;9.75;3.30;;;;;;;-2.27;66.38;101026.79;1770993;81;21095;-54
2023/01/10 05:13:16;;;;;;;11.10;3.40;;;;;;;-2.30;66.57;101022.97;1771019;80;21545;-54
2023/01/10 05:15:45;;;;;;;9.08;2.80;;;;;;;-2.33;66.54;101015.11;1771046;81;21139;-55
2023/01/10 05:18:14;;;;;;;11.03;3.10;;;;;;;-2.35;66.52;101009.84;1770816;81;21174;-54
2023/01/10 05:20:43;;;;;;;16.57;3.52;;;;;;;-2.39;66.46;101015.52;1771159;81;21118;-53
2023/01/10 05:23:12;;;;;;;14.43;5.20;;;;;;;-2.46;66.31;101012.85;1771180;81;21111;-54
2023/01/10 05:25:41;;;;;;;12.68;3.80;;;;;;;-2.51;66.39;101013.15;1771203;81;21115;-54
2023/01/10 05:28:10;;;;;;;9.68;3.60;;;;;;;-2.55;66.43;101022.36;1771155;80;21154;-54
2023/01/10 05:30:41;;;;;;;18.92;3.85;;;;;;;-2.59;66.59;101027.06;1771050;81;21567;-54
2023/01/10 05:33:10;;;;;;;16.60;3.62;;;;;;;-2.63;66.85;101028.66;1771153;81;21133;-53
2023/01/10 05:35:39;;;;;;;13.93;4.10;;;;;;;-2.69;67.17;101028.58;1771181;81;21099;-54
2023/01/10 05:38:09;;;;;;;13.15;4.20;;;;;;;-2.73;67.39;101033.75;1770848;81;21142;-54
2023/01/10 05:40:38;;;;;;;12.93;3.90;;;;;;;-2.79;67.87;101027.91;1771242;80;21091;-54
2023/01/10 05:43:07;;;;;;;12.95;4.25;;;;;;;-2.87;68.33;101036.44;1770983;81;21190;-54
2023/01/10 05:45:37;;;;;;;13.83;3.77;;;;;;;-2.91;68.77;101042.95;1771005;81;21151;-55
2023/01/10 05:48:06;;;;;;;12.82;4.33;;;;;;;-2.95;68.89;101043.63;1771096;81;21147;-54
2023/01/10 05:50:36;;;;;;;12.68;4.37;;;;;;;-2.99;69.13;101046.59;1770844;81;21103;-55
2023/01/10 05:53:05;;;;;;;11.97;3.85;;;;;;;-3.05;69.14;101054.54;1771058;81;21505;-55
2023/01/10 05:55:34;;;;;;;14.75;4.78;;;;;;;-3.10;69.33;101044.58;1776955;79;21143;-55
2023/01/10 05:58:05;;;;;;;12.25;3.95;;;;;;;-3.15;69.65;101064.11;1779515;80;21098;-51
2023/01/10 06:00:35;;;;;;;13.90;5.03;;;;;;;-3.24;69.61;101064.67;1779618;80;21379;-52
2023/01/10 06:03:04;;;;;;;14.38;4.42;;;;;;;-3.34;69.80;101060.79;1779653;80;21185;-52
2023/01/10 06:05:33;;;;;;;15.40;4.83;;;;;;;-3.37;69.91;101071.69;1779693;80;21086;-51
2023/01/10 06:08:04;;;;;;;13.15;4.60;;;;;;;-3.41;70.05;101061.64;1779589;80;21075;-54
2023/01/10 06:10:33;;;;;;;12.95;4.85;;;;;;;-3.44;70.27;101071.20;1779700;80;21119;-53
2023/01/10 06:13:01;;;;;;;12.95;4.50;;;;;;;-3.49;70.37;101067.08;1779587;80;21134;-52
2023/01/10 06:15:31;;;;;;;12.00;4.42;;;;;;;-3.56;70.62;101076.81;1779628;80;21165;-52
2023/01/10 06:18:02;;;;;;;13.15;4.72;;;;;;;-3.62;70.71;101074.50;1779548;80;21142;-51
2023/01/10 06:20:31;;;;;;;12.13;4.47;;;;;;;-3.65;70.92;101069.80;1779721;80;21535;-52
2023/01/10 06:23:03;;;;;;;12.78;4.65;;;;;;;-3.67;71.01;101076.59;1779787;80;21138;-54
2023/01/10 06:25:35;;;;;;;13.38;5.15;;;;;;;-3.68;70.88;101089.59;1779722;80;21099;-52
2023/01/10 06:28:08;;;;;;;19.40;5.50;;;;;;;-3.71;70.88;101091.11;1779730;80;21138;-53
2023/01/10 06:30:37;;;;;;;10.53;4.53;;;;;;;-3.75;70.77;101084.20;1779888;80;21153;-53
2023/01/10 06:33:06;;;;;;;14.70;4.37;;;;;;;-3.73;70.84;101090.34;1779729;80;21142;-53
2023/01/10 06:35:35;;;;;;;10.65;4.55;;;;;;;-3.75;70.48;101094.92;1779738;80;21587;-53
2023/01/10 06:38:04;;;;;;;17.82;4.65;;;;;;;-3.81;70.06;101083.23;1779800;80;21111;-53
2023/01/10 06:40:33;;;;;;;24.80;5.60;;;;;;;-3.94;69.97;101095.56;1779699;80;21118;-53
2023/01/10 06:43:02;;;;;;;9.80;4.17;;;;;;;-3.99;69.97;101100.32;1779970;79;21094;-52
2023/01/10 06:45:30;;;;;;;17.95;4.70;;;;;;;-4.05;69.28;101094.84;1779954;80;21083;-54
2023/01/10 06:48:00;;;;;;;13.65;4.75;;;;;;;-4.10;69.20;101097.39;1779662;80;21600;-53
2023/01/10 06:50:28;;;;;;;16.57;4.70;;;;;;;-4.17;69.15;101107.11;1779612;80;21122;-52
2023/01/10 06:52:59;;;;;;;19.00;4.90;;;;;;;-4.20;69.22;101104.61;1779784;80;21083;-53
2023/01/10 06:55:28;;;;;;;12.10;4.10;;;;;;;-4.24;69.52;101121.78;1779521;80;21074;-53
2023/01/10 06:58:03;;;;;;;14.75;5.25;;;;;;;-4.23;69.15;101120.83;1779723;80;21169;-52
2023/01/10 07:00:33;;;;;;;14.25;5.10;;;;;;;-4.19;68.91;101121.05;1779583;80;21173;-51
2023/01/10 07:03:02;;;;;;;12.50;4.55;;;;;;;-4.19;68.69;101132.23;1779499;80;21577;-53
2023/01/10 07:05:33;;;;;;;13.13;4.83;;;;;;;-4.26;68.27;101122.81;1779748;80;21130;-53
2023/01/10 07:08:02;;;;;;;18.20;5.25;;;;;;;-4.31;68.54;101127.09;1779601;80;21137;-52
2023/01/10 07:10:32;;;;;;;17.27;4.83;;;;;;;-4.34;68.41;101137.09;1779786;80;21169;-54
2023/01/10 07:13:01;;;;;;;11.95;5.12;;;;;;;-4.39;68.13;101144.51;1779666;80;21146;-53
2023/01/10 07:15:30;;;;;;;15.32;5.70;;;;;;;-4.41;68.63;101144.59;1779789;80;21584;-54
2023/01/10 07:17:59;;;;;;;16.93;5.15;;;;;;;-4.41;68.63;101144.59;1779553;80;21141;-55
2023/01/10 07:20:29;;;;;;;12.47;5.55;;;;;;;-4.39;68.75;101151.19;1779961;80;21141;-56
2023/01/10 07:22:59;;;;;;;17.80;4.92;;;;;;;-4.36;68.89;101150.55;1779944;79;21102;-54
2023/01/10 07:25:29;;;;;;;12.53;4.70;;;;;;;-4.36;68.89;101150.55;1779971;80;21090;-56
2023/01/10 07:27:58;;;;;;;13.62;4.62;;;;;;;-4.35;68.92;101150.94;1779873;80;21193;-54
2023/01/10 07:30:26;;;;;;;11.75;4.60;;;;;;;-4.34;68.93;101154.48;1780105;80;21154;-55
2023/01/10 07:32:56;;;;;;;15.18;5.28;;;;;;;-4.34;68.92;101155.34;1779928;80;21146;-55
2023/01/10 07:35:25;;;;;;;12.45;4.87;;;;;;;-4.34;69.02;101151.33;1781075;80;21106;-55
2023/01/10 07:37:59;;;;;;;17.60;5.75;;;;;;;-4.29;69.11;101151.94;1781141;79;21118;-55
2023/01/10 07:40:28;;;;;;;19.35;5.22;;;;;;;-4.29;69.11;101151.94;1760102;80;21107;-55
2023/01/10 07:42:59;;;;;;;15.72;5.42;;;;;;;-4.23;68.97;101149.40;1779852;80;21130;-55
2023/01/10 07:45:29;;;;;;;17.27;6.22;;;;;;;-4.23;68.83;101154.27;1779870;80;21177;-55
2023/01/10 07:48:00;;;;;;;11.12;4.85;;;;;;;-4.23;68.83;101154.27;1779621;80;21118;-55
2023/01/10 07:50:33;;;;;;;16.32;4.67;;;;;;;-4.26;68.78;101149.09;1759328;80;21079;-55
2023/01/10 07:53:04;;;;;;;15.63;4.90;;;;;;;-4.26;68.93;101155.78;1779778;80;21103;-55
2023/01/10 07:55:37;;;;;;;13.38;5.70;;;;;;;-4.24;68.58;101145.86;1776175;80;21544;-55
2023/01/10 07:58:07;;;;;;;12.28;5.05;;;;;;;-4.26;68.94;101153.11;1749004;81;21483;-55
2023/01/10 08:00:38;;;;;;;15.90;5.10;;;;;;;-4.26;68.94;101153.11;1770939;81;21114;-53
2023/01/10 08:03:08;;;;;;;17.12;5.70;;;;;;;-4.22;68.79;101163.16;1771173;81;21142;-55
2023/01/10 08:05:38;;;;;;;14.43;4.40;;;;;;;-4.27;68.59;101166.09;1749803;81;21111;-55
2023/01/10 08:08:08;;;;;;;17.37;5.08;;;;;;;-4.27;68.59;101166.09;1770984;80;21714;-55
2023/01/10 08:10:39;;;;;;;15.63;5.97;;;;;;;-4.24;68.44;101161.91;1770921;81;21181;-55
2023/01/10 08:13:08;;;;;;;19.00;5.65;;;;;;;-4.16;68.77;101177.55;1771141;80;21162;-55
2023/01/10 08:15:39;;;;;;;12.55;5.10;;;;;;;-4.16;68.77;101177.55;1769986;81;21099;-55
2023/01/10 08:18:09;;;;;;;14.38;5.53;;;;;;;-4.12;67.92;101172.88;1771049;80;21214;-55
2023/01/10 08:20:38;;;;;;;14.87;5.37;;;;;;;-4.17;67.83;101178.02;1771198;81;21727;-55
2023/01/10 08:23:07;;;;;;;20.12;5.58;;;;;;;-4.16;67.86;101182.89;1749511;81;21510;-55
2023/01/10 08:25:37;;;;;;;17.52;5.00;;;;;;;-4.16;67.57;101183.75;1770957;81;21135;-54
2023/01/10 08:28:07;;;;;;;16.05;5.37;;;;;;;-4.12;67.38;101192.48;1771065;81;21107;-56
2023/01/10 08:30:36;;;;;;;15.48;5.17;;;;;;;-4.13;66.81;101183.20;1771273;81;21158;-55
2023/01/10 08:33:06;;;;;;;13.53;4.87;;;;;;;-4.18;67.09;101191.48;1770880;80;21099;-55
2023/01/10 08:35:39;;;;;;;20.68;5.37;;;;;;;-4.18;67.09;101191.48;1771124;81;21514;-55
2023/01/10 08:38:09;;;;;;;17.45;5.40;;;;;;;-4.12;67.19;101188.94;1770869;81;21190;-55
2023/01/10 08:40:38;;;;;;;14.55;4.62;;;;;;;-4.09;67.26;101187.43;1771201;81;21095;-55
2023/01/10 08:43:10;;;;;;;15.65;5.50;;;;;;;-4.03;67.00;101185.75;1771049;81;21150;-55
2023/01/10 08:45:39;;;;;;;16.60;5.03;;;;;;;-3.96;66.66;101173.75;1771030;81;21123;-55
2023/01/10 08:48:09;;;;;;;36.90;7.03;;;;;;;-3.96;66.66;101173.75;1770901;81;21182;-54
2023/01/10 08:50:38;;;;;;;15.43;4.95;;;;;;;-3.94;66.33;101159.81;1771101;81;21205;-55
2023/01/10 08:53:07;;;;;;;15.48;4.72;;;;;;;-3.89;66.31;101177.84;1771249;81;21087;-54
2023/01/10 08:55:37;;;;;;;17.35;5.08;;;;;;;-3.85;65.79;101168.69;1750181;81;21202;-55
2023/01/10 08:58:06;;;;;;;31.48;5.85;;;;;;;-3.84;66.08;101165.06;1776567;79;21176;-55
2023/01/10 09:00:35;;;;;;;11.83;4.35;;;;;;;-3.79;65.90;101163.45;1776843;80;21119;-55
2023/01/10 09:03:08;;;;;;;16.80;4.80;;;;;;;-3.69;66.10;101160.16;1776609;81;21086;-55
2023/01/10 09:05:39;;;;;;;18.98;4.45;;;;;;;-3.59;65.42;101164.52;1708575;84;21137;-55
2023/01/10 09:08:09;;;;;;;12.98;4.70;;;;;;;-3.53;64.86;101165.02;1708886;84;21613;-55
2023/01/10 09:10:38;;;;;;;11.05;4.50;;;;;;;-3.51;64.82;101162.25;1704781;84;21396;-56
2023/01/10 09:13:08;;;;;;;14.63;4.92;;;;;;;-3.44;64.74;101157.40;1708518;84;21326;-56
2023/01/10 09:15:39;;;;;;;17.55;4.28;;;;;;;-3.42;63.84;101146.12;1708432;84;21088;-57
2023/01/10 09:18:11;;;;;;;13.75;4.50;;;;;;;-3.40;63.76;101149.09;1708551;84;21597;-56
2023/01/10 09:20:40;;;;;;;19.55;5.00;;;;;;;-3.37;63.64;101148.05;1708512;84;21087;-56
2023/01/10 09:23:16;;;;;;;16.55;4.72;;;;;;;-3.35;62.98;101146.14;1708557;84;21178;-56
2023/01/10 09:25:44;;;;;;;11.28;4.47;;;;;;;-3.34;62.99;101146.52;1708576;84;21114;-56
2023/01/10 09:28:13;;;;;;;22.17;4.40;;;;;;;-3.36;62.65;101153.31;1708354;84;21619;-56
2023/01/10 09:30:42;;;;;;;14.03;4.53;;;;;;;-3.36;62.39;101152.45;1754814;81;21082;-57
2023/01/10 09:33:11;;;;;;;12.20;4.15;;;;;;;-3.39;61.70;101164.21;1776563;80;21142;-56
2023/01/10 09:35:41;;;;;;;22.95;4.45;;;;;;;-3.38;62.01;101158.38;1776586;79;21102;-57
2023/01/10 09:38:15;;;;;;;14.68;4.35;;;;;;;-3.33;61.70;101159.83;1776440;81;21075;-56
2023/01/10 09:41:13;;;;;;;11.20;3.90;;;;;;;-3.29;62.12;101172.57;1776810;81;21119;-56
2023/01/10 09:43:56;;;;;;;13.30;3.52;;;;;;;-3.29;61.04;101165.87;1776784;81;21134;-56
2023/01/10 09:46:44;;;;;;;9.20;3.80;;;;;;;-3.28;61.21;101166.26;1746008;81;21222;-56
2023/01/10 09:49:49;;;;;;;15.53;4.60;;;;;;;-3.24;61.28;101167.36;1776479;80;21162;-56
2023/01/10 09:52:23;;;;;;;14.28;4.37;;;;;;;-3.23;60.88;101179.80;1776898;80;21510;-56
2023/01/10 09:54:52;;;;;;;14.60;4.20;;;;;;;-3.16;61.18;101186.14;1680649;84;21175;-57
2023/01/10 09:57:22;;;;;;;12.88;4.20;;;;;;;-3.11;61.25;101180.89;1651000;83;21225;-57
2023/01/10 09:59:52;;;;;;;15.95;4.53;;;;;;;-3.04;61.32;101190.77;1627194;86;21252;-57
2023/01/10 10:02:40;;;;;;;14.18;4.00;;;;;;;-3.00;60.81;101177.09;1625156;88;21172;-58
2023/01/10 10:05:18;;;;;;;18.17;4.45;;;;;;;-2.96;60.80;101180.45;1627941;88;21604;-56
2023/01/10 10:07:51;;;;;;;14.40;4.37;;;;;;;-2.92;60.76;101180.17;1628594;87;21339;-57
2023/01/10 10:10:25;;;;;;;11.68;4.22;;;;;;;-2.84;60.88;101174.34;1628695;88;21184;-56
2023/01/10 10:13:11;;;;;;;19.20;5.20;;;;;;;-2.75;60.30;101177.80;1628254;88;21208;-56
2023/01/10 10:16:20;;;;;;;19.55;4.10;;;;;;;-2.71;60.22;101167.75;1625750;88;21133;-57
2023/01/10 17:49:26;;;;;;;7.73;2.57;;;;;;;-2.21;50.42;101308.23;1811629;78;28128;-56
2023/01/10 17:51:57;;;;;;;16.30;5.50;;;;;;;-2.22;50.54;101315.90;1783987;80;21119;-56
2023/01/10 17:54:27;;;;;;;18.77;3.12;;;;;;;-2.24;50.48;101311.11;1788023;80;21151;-56
2023/01/10 17:56:56;;;;;;;18.35;3.50;;;;;;;-2.23;50.47;101308.80;1789264;80;21123;-55
2023/01/10 17:59:26;;;;;;;18.85;3.80;;;;;;;-2.27;50.91;101321.55;1788955;80;21162;-56
2023/01/10 18:01:55;;;;;;;16.42;2.67;;;;;;;-2.27;51.27;101309.95;1760366;80;21186;-57
2023/01/10 18:04:24;;;;;;;12.78;3.15;;;;;;;-2.28;52.13;101312.25;1789370;80;21099;-56
2023/01/10 18:06:54;;;;;;;14.73;4.15;;;;;;;-2.29;52.73;101320.78;1789652;80;21188;-56
2023/01/10 18:09:24;;;;;;;7.42;2.60;;;;;;;-2.30;53.27;101304.29;1795341;80;21125;-55
2023/01/10 18:11:55;;;;;;;14.18;2.83;;;;;;;-2.34;54.09;101301.41;1723106;83;21644;-56
2023/01/10 18:14:37;;;;;;;19.32;3.20;;;;;;;-2.43;54.82;101315.86;1720951;83;21120;-56
2023/01/10 18:17:09;;;;;;;16.82;3.80;;;;;;;-2.51;55.48;101315.45;1724229;83;21139;-54
2023/01/10 18:19:39;;;;;;;13.45;3.12;;;;;;;-2.56;55.97;101317.08;1687955;83;21606;-56
2023/01/10 18:24:56;;;;;;;;;;;;;;;-2.63;57.61;101323.73;1722588;83;21563;-55
2023/01/10 18:27:25;;;;;;;13.90;2.65;;;;;;;-2.65;58.78;101330.52;1723038;83;20486;-55
2023/01/10 18:29:54;;;;;;;12.95;3.30;;;;;;;-2.70;60.21;101325.05;1749993;80;21122;-56
2023/01/10 18:32:26;;;;;;;21.15;3.52;;;;;;;-2.82;60.80;101329.79;1792853;80;21153;-55
2023/01/10 18:34:54;;;;;;;15.30;2.83;;;;;;;-2.92;62.45;101328.98;1788202;80;21122;-56
2023/01/10 18:37:23;;;;;;;16.52;3.45;;;;;;;-3.02;63.16;101327.78;1788682;80;21154;-56
2023/01/10 18:39:53;;;;;;;14.18;3.87;;;;;;;-3.08;64.94;101322.78;1787857;80;21118;-56
2023/01/10 18:42:24;;;;;;;23.87;3.62;;;;;;;-3.13;65.32;101335.58;1795258;80;21145;-59
2023/01/10 18:44:52;;;;;;;11.55;3.33;;;;;;;-3.16;65.99;101345.14;1793024;80;21541;-57
2023/01/10 18:47:22;;;;;;;15.75;3.35;;;;;;;-3.18;66.72;101351.06;1788562;80;21126;-56
2023/01/10 18:49:52;;;;;;;13.00;3.10;;;;;;;-3.28;67.36;101349.34;1787425;80;21549;-56
2023/01/10 18:52:23;;;;;;;18.20;4.08;;;;;;;-3.39;69.44;101353.09;1787894;80;21103;-56
2023/01/10 18:54:52;;;;;;;11.90;3.00;;;;;;;-3.44;71.09;101361.00;1787204;80;21145;-57
2023/01/10 18:57:22;;;;;;;16.15;3.35;;;;;;;-3.45;72.19;101346.73;1789215;80;21629;-56
2023/01/10 18:59:52;;;;;;;11.73;3.90;;;;;;;-3.48;72.87;101345.56;1759507;80;21094;-57
2023/01/10 19:02:22;;;;;;;16.50;3.60;;;;;;;-3.50;73.46;101354.16;1788732;80;21264;-54
2023/01/10 19:04:52;;;;;;;24.77;3.72;;;;;;;-3.55;73.81;101345.05;1790470;80;21098;-56
2023/01/10 19:07:25;;;;;;;10.90;3.47;;;;;;;-3.55;74.19;101349.53;1787923;80;21595;-57
2023/01/10 19:09:55;;;;;;;13.13;3.00;;;;;;;-3.58;74.28;101345.21;1792477;80;21153;-56
2023/01/10 19:12:24;;;;;;;14.00;3.50;;;;;;;-3.65;74.37;101348.31;1790867;80;21110;-56
2023/01/10 19:14:54;;;;;;;19.15;3.37;;;;;;;-3.72;74.72;101346.92;1756975;80;21185;-55
2023/01/10 19:17:23;;;;;;;11.68;3.33;;;;;;;-3.79;75.81;101350.88;1789122;80;21115;-56
2023/01/10 19:19:54;;;;;;;15.83;3.60;;;;;;;-3.79;75.81;101350.88;1759279;80;21164;-55
2023/01/10 19:22:23;;;;;;;8.18;3.20;;;;;;;-3.81;75.76;101352.77;1788026;80;21106;-55
2023/01/10 19:24:53;;;;;;;17.65;3.30;;;;;;;-3.86;75.94;101352.55;1788043;80;21142;-56